Terminal Aerodrome Forecast
Issued by NWS

Home | Current Version | Previous Version | Text Only | Print | Product List | Glossary Off
Versions: 1 2 3 4 5 6 7 8 9 10 11 12 13 14

000
FTUS43 KMPX 261359 AAA
TAFRWF
TAF AMD
KRWF 261359Z 2614/2712 01004KT 6SM -DZ VCSH BKN015
     FM261630 01005KT P6SM SCT025 BKN110
     FM261900 36007KT P6SM SCT110
     FM270000 36004KT P6SM SKC=

USA.gov is the U.S. government's official web portal to all federal, state and local government web resources and services.